Time;durP1;ratioP1;P1;durP2;ratioP2;P2;SDS_P1;SDS_P2;PMS_P1;PMS_P2;Temp;Humidity;BMP_temperature;BMP_pressure;BME280_temperature;BME280_humidity;BME280_pressure;Samples;Min_cycle;Max_cycle;Signal;HPM_P1;HPM_P2
2021/12/27 00:02:04;;;;;;;140.38;57.58;;;-0.50;99.90;;;;;;4935503;28;20055;-71
2021/12/27 00:04:31;;;;;;;89.40;35.40;;;-0.50;99.90;;;;;;4933678;29;20851;-69
2021/12/27 00:06:58;;;;;;;89.70;34.72;;;-0.50;99.90;;;;;;4953652;28;20046;-72
2021/12/27 00:09:25;;;;;;;82.78;36.85;;;-0.50;99.90;;;;;;4955289;28;20341;-70
2021/12/27 00:11:51;;;;;;;88.30;36.65;;;-0.50;99.90;;;;;;4954684;28;20050;-70
2021/12/27 00:14:18;;;;;;;98.43;37.70;;;-0.50;99.90;;;;;;4960120;28;20484;-70
2021/12/27 00:16:45;;;;;;;98.28;36.42;;;-0.50;99.90;;;;;;4960955;28;20097;-70
2021/12/27 00:19:12;;;;;;;87.57;37.47;;;-0.50;99.90;;;;;;4954221;28;20057;-71
2021/12/27 00:21:39;;;;;;;98.05;38.45;;;-0.40;99.90;;;;;;4956004;28;20047;-69
2021/12/27 00:24:06;;;;;;;90.28;35.42;;;-0.40;99.90;;;;;;4953160;28;20054;-69
2021/12/27 00:26:33;;;;;;;95.95;38.17;;;-0.30;99.90;;;;;;4953418;28;20409;-70
2021/12/27 00:28:59;;;;;;;96.30;36.83;;;-0.30;99.90;;;;;;4954825;28;20069;-72
2021/12/27 00:31:26;;;;;;;82.13;35.95;;;-0.30;99.90;;;;;;4953087;28;20658;-70
2021/12/27 00:33:53;;;;;;;92.43;33.40;;;-0.20;99.90;;;;;;4954222;28;20155;-70
2021/12/27 00:36:20;;;;;;;88.90;34.65;;;-0.10;99.90;;;;;;4953024;28;20058;-70
2021/12/27 00:38:47;;;;;;;88.28;38.35;;;-0.20;99.90;;;;;;4954029;28;20113;-71
2021/12/27 00:41:13;;;;;;;91.45;32.78;;;-0.10;99.90;;;;;;4955928;28;20137;-71
2021/12/27 00:43:40;;;;;;;76.88;29.80;;;-0.20;99.90;;;;;;4956123;28;20050;-71
2021/12/27 00:46:07;;;;;;;84.75;34.45;;;-0.10;99.90;;;;;;4951847;28;20243;-70
2021/12/27 00:48:34;;;;;;;79.90;33.38;;;-0.10;99.90;;;;;;4967722;28;20129;-70
2021/12/27 00:51:00;;;;;;;83.20;34.22;;;-0.10;99.90;;;;;;4955168;28;20484;-71
2021/12/27 00:53:27;;;;;;;74.65;31.08;;;-0.10;99.90;;;;;;4953874;28;20059;-71
2021/12/27 00:55:54;;;;;;;78.10;30.73;;;-0.10;99.90;;;;;;4954429;28;20054;-71
2021/12/27 00:58:21;;;;;;;77.15;31.70;;;0.00;99.90;;;;;;4969228;28;20083;-71
2021/12/27 01:00:49;;;;;;;84.03;33.50;;;0.10;99.90;;;;;;4952139;28;20149;-71
2021/12/27 01:03:18;;;;;;;88.70;34.30;;;0.10;99.90;;;;;;4952584;28;20488;-70
2021/12/27 01:05:45;;;;;;;85.20;34.55;;;0.10;99.90;;;;;;4952232;28;20573;-71
2021/12/27 01:08:11;;;;;;;83.90;33.83;;;0.10;99.90;;;;;;4951806;28;20124;-70
2021/12/27 01:16:02;;;;;;;82.35;32.88;;;0.20;99.90;;;;;;4952697;28;20270;-71
2021/12/27 01:18:29;;;;;;;77.35;33.72;;;0.20;99.90;;;;;;4952042;28;20131;-70
2021/12/27 01:20:56;;;;;;;90.03;34.90;;;0.10;99.90;;;;;;4952371;28;20468;-70
2021/12/27 01:23:23;;;;;;;84.18;31.95;;;0.10;99.90;;;;;;4951578;28;20099;-71
2021/12/27 01:25:50;;;;;;;69.50;28.45;;;0.10;99.90;;;;;;4954064;28;20122;-70
2021/12/27 01:28:19;;;;;;;82.63;33.22;;;0.10;99.90;;;;;;4953107;28;20055;-71
2021/12/27 01:30:50;;;;;;;81.72;34.20;;;0.10;99.90;;;;;;4951411;28;20486;-70
2021/12/27 01:33:19;;;;;;;88.25;32.80;;;0.10;99.90;;;;;;4954463;28;20062;-72
2021/12/27 01:35:47;;;;;;;88.65;32.63;;;0.10;99.90;;;;;;4951421;28;20134;-70
2021/12/27 01:38:14;;;;;;;97.68;35.83;;;0.00;99.90;;;;;;4951645;28;20301;-72
2021/12/27 01:40:45;;;;;;;88.90;35.95;;;0.10;99.90;;;;;;4951973;28;20109;-71
2021/12/27 01:43:20;;;;;;;73.43;28.95;;;0.00;99.90;;;;;;4952849;28;20051;-71
2021/12/27 01:45:51;;;;;;;93.82;34.08;;;0.10;99.90;;;;;;4932934;28;20252;-70
2021/12/27 01:48:21;;;;;;;101.88;37.63;;;0.10;99.90;;;;;;4952983;28;20513;-70
2021/12/27 01:50:50;;;;;;;98.95;37.15;;;0.10;99.90;;;;;;4960274;28;20058;-70
2021/12/27 01:53:18;;;;;;;114.35;39.75;;;0.10;99.90;;;;;;4957759;28;20055;-69
2021/12/27 01:55:46;;;;;;;98.60;40.45;;;0.10;99.90;;;;;;4951794;28;20782;-70
2021/12/27 01:58:13;;;;;;;80.22;30.60;;;0.20;99.90;;;;;;4951426;28;20106;-70
2021/12/27 02:00:44;;;;;;;80.15;29.77;;;0.20;99.90;;;;;;4951074;28;20058;-71
2021/12/27 02:03:13;;;;;;;89.88;35.25;;;0.20;99.90;;;;;;4952553;28;20093;-72
2021/12/27 02:05:40;;;;;;;93.25;34.47;;;0.20;99.90;;;;;;4953044;28;20466;-70
2021/12/27 02:08:08;;;;;;;90.63;32.65;;;0.20;99.90;;;;;;4953277;28;20472;-69
2021/12/27 02:10:35;;;;;;;90.07;31.83;;;0.20;99.90;;;;;;4953249;28;20062;-70
2021/12/27 02:13:02;;;;;;;78.45;30.38;;;0.20;99.90;;;;;;4953380;28;20472;-69
2021/12/27 02:15:30;;;;;;;90.10;34.22;;;0.20;99.90;;;;;;4950423;28;20062;-70
2021/12/27 02:17:57;;;;;;;85.60;34.00;;;0.20;99.90;;;;;;4951771;28;20042;-69
2021/12/27 02:20:30;;;;;;;92.28;33.03;;;0.20;99.90;;;;;;4954711;28;20157;-70
2021/12/27 02:23:01;;;;;;;96.95;36.58;;;0.20;99.90;;;;;;4958135;28;20378;-69
2021/12/27 02:25:30;;;;;;;83.28;33.90;;;0.20;99.90;;;;;;4956760;28;20524;-72
2021/12/27 02:27:59;;;;;;;93.75;36.28;;;0.30;99.90;;;;;;4958903;28;20047;-72
2021/12/27 02:30:26;;;;;;;86.28;31.38;;;0.30;99.90;;;;;;4957500;28;20247;-69
2021/12/27 02:33:03;;;;;;;69.07;27.95;;;0.30;99.90;;;;;;4957515;28;20054;-71
2021/12/27 02:35:37;;;;;;;89.40;32.53;;;0.30;99.90;;;;;;4957326;28;20587;-71
2021/12/27 02:38:26;;;;;;;70.25;29.65;;;0.30;99.90;;;;;;4956996;28;20489;-72
2021/12/27 02:40:53;;;;;;;57.33;24.80;;;0.40;99.90;;;;;;4957425;28;20054;-70
2021/12/27 02:43:23;;;;;;;82.53;34.22;;;0.40;99.90;;;;;;4949151;28;20150;-70
2021/12/27 02:45:53;;;;;;;97.20;34.33;;;0.30;99.90;;;;;;4954934;28;20042;-72
2021/12/27 02:48:22;;;;;;;71.13;27.17;;;0.40;99.90;;;;;;4957267;28;20050;-70
2021/12/27 02:50:51;;;;;;;91.20;34.60;;;0.30;99.90;;;;;;4956627;28;20145;-70
2021/12/27 02:53:18;;;;;;;85.78;34.60;;;0.20;99.90;;;;;;4959200;28;20066;-70
2021/12/27 02:55:47;;;;;;;99.28;37.45;;;0.20;99.90;;;;;;4957385;28;20522;-72
2021/12/27 02:58:14;;;;;;;93.97;36.45;;;0.20;99.90;;;;;;4956246;28;20483;-71
2021/12/27 03:00:57;;;;;;;85.18;35.13;;;0.30;99.90;;;;;;4955859;28;20054;-70
2021/12/27 03:03:25;;;;;;;89.65;35.92;;;0.40;99.90;;;;;;4959030;28;20417;-71
2021/12/27 03:05:52;;;;;;;90.00;35.35;;;0.40;99.90;;;;;;4958225;28;20105;-70
2021/12/27 03:08:20;;;;;;;84.45;34.55;;;0.30;99.90;;;;;;4956216;28;20417;-69
2021/12/27 03:10:52;;;;;;;88.10;33.75;;;0.40;99.90;;;;;;4954062;28;20047;-70
2021/12/27 03:13:22;;;;;;;90.50;35.60;;;0.40;99.90;;;;;;4954578;28;20138;-71
2021/12/27 03:16:01;;;;;;;81.50;35.47;;;0.30;99.90;;;;;;4951951;28;20519;-71
2021/12/27 03:18:29;;;;;;;83.43;33.72;;;0.30;99.90;;;;;;4958780;28;20113;-71
2021/12/27 03:20:56;;;;;;;87.30;34.78;;;0.40;99.90;;;;;;4959578;28;20047;-70
2021/12/27 03:23:23;;;;;;;97.60;36.97;;;0.50;99.90;;;;;;4957265;28;20258;-70
2021/12/27 03:25:50;;;;;;;88.78;35.60;;;0.40;99.90;;;;;;4955998;28;20069;-70
2021/12/27 03:28:17;;;;;;;89.57;35.05;;;0.40;99.90;;;;;;4957200;28;20224;-72
2021/12/27 03:30:45;;;;;;;85.90;35.45;;;0.50;99.90;;;;;;4956770;28;20059;-71
2021/12/27 03:33:13;;;;;;;87.32;33.90;;;0.50;99.90;;;;;;4954129;28;20196;-71
2021/12/27 03:35:51;;;;;;;84.70;36.67;;;0.50;99.90;;;;;;4951814;28;20551;-70
2021/12/27 03:38:18;;;;;;;83.38;33.25;;;0.50;99.90;;;;;;4952121;28;20267;-71
2021/12/27 03:40:48;;;;;;;92.63;35.30;;;0.50;99.90;;;;;;4953198;28;20066;-72
2021/12/27 03:43:15;;;;;;;87.00;35.67;;;0.40;99.90;;;;;;4953505;28;20066;-71
2021/12/27 03:45:42;;;;;;;90.13;36.95;;;0.50;99.90;;;;;;4951252;28;20201;-72
2021/12/27 03:48:11;;;;;;;82.65;34.70;;;0.50;99.90;;;;;;4953642;28;20453;-71
2021/12/27 03:50:38;;;;;;;90.40;36.45;;;0.50;99.90;;;;;;4953882;28;20629;-71
2021/12/27 03:53:07;;;;;;;89.68;34.90;;;0.60;99.90;;;;;;4954682;28;20070;-71
2021/12/27 03:55:34;;;;;;;81.43;31.17;;;0.60;99.90;;;;;;4953268;28;20058;-70
2021/12/27 03:58:09;;;;;;;87.30;33.00;;;0.60;99.90;;;;;;4948697;28;20042;-71
2021/12/27 04:03:27;;;;;;;79.85;31.45;;;0.60;99.90;;;;;;4958725;28;20324;-70
2021/12/27 04:05:54;;;;;;;66.80;27.65;;;0.60;99.90;;;;;;4952537;28;20564;-70
2021/12/27 04:08:22;;;;;;;85.70;35.10;;;0.60;99.90;;;;;;4953007;28;20054;-70
2021/12/27 04:10:49;;;;;;;58.25;24.40;;;0.60;99.90;;;;;;4935544;28;20560;-69
2021/12/27 04:13:21;;;;;;;78.60;32.67;;;0.60;99.90;;;;;;4952451;28;20051;-71
2021/12/27 04:15:49;;;;;;;73.25;26.98;;;0.60;99.90;;;;;;4950433;28;20532;-70
2021/12/27 04:18:17;;;;;;;71.53;29.55;;;0.70;99.90;;;;;;4951495;28;20043;-70
2021/12/27 04:20:45;;;;;;;80.28;31.33;;;0.60;99.90;;;;;;4952674;28;20060;-71
2021/12/27 04:23:12;;;;;;;57.28;23.83;;;0.70;99.90;;;;;;4952510;28;20568;-71
2021/12/27 04:25:40;;;;;;;80.80;29.08;;;0.70;99.90;;;;;;4953085;28;20141;-70
2021/12/27 04:28:07;;;;;;;62.13;23.98;;;0.70;99.90;;;;;;4950991;28;20129;-71
2021/12/27 04:30:34;;;;;;;71.90;27.65;;;0.70;99.90;;;;;;4950566;28;20069;-67
2021/12/27 04:33:01;;;;;;;66.25;27.25;;;0.70;99.90;;;;;;4951727;28;20043;-67
2021/12/27 04:35:29;;;;;;;68.22;27.10;;;0.70;99.90;;;;;;4952147;28;20054;-68
2021/12/27 04:37:56;;;;;;;70.63;28.02;;;0.70;99.90;;;;;;4952488;28;20415;-68
2021/12/27 04:40:24;;;;;;;60.70;25.08;;;0.70;99.90;;;;;;4949945;28;20050;-67
2021/12/27 04:42:56;;;;;;;64.60;26.45;;;0.70;99.90;;;;;;4952289;28;20035;-67
2021/12/27 04:45:23;;;;;;;64.50;28.98;;;0.70;99.90;;;;;;4949949;28;20120;-67
2021/12/27 04:47:50;;;;;;;59.67;24.13;;;0.80;99.90;;;;;;4949486;28;20038;-68
2021/12/27 04:50:17;;;;;;;65.68;26.40;;;0.70;99.90;;;;;;4952358;28;20055;-67
2021/12/27 04:52:45;;;;;;;53.17;24.02;;;0.80;99.90;;;;;;4954867;28;20398;-68
2021/12/27 04:55:12;;;;;;;77.22;30.00;;;0.80;99.90;;;;;;4951833;28;20062;-67
2021/12/27 04:57:39;;;;;;;72.05;28.80;;;0.80;99.90;;;;;;4951443;28;20312;-68
2021/12/27 05:00:07;;;;;;;84.82;28.52;;;0.80;99.90;;;;;;4953945;28;20065;-67
2021/12/27 05:02:34;;;;;;;72.22;29.95;;;0.80;99.90;;;;;;4953996;28;20281;-68
2021/12/27 05:05:01;;;;;;;71.78;26.77;;;0.90;99.90;;;;;;4952098;28;20618;-68
2021/12/27 05:07:28;;;;;;;69.80;29.40;;;0.90;99.90;;;;;;4952892;28;20146;-68
2021/12/27 05:09:55;;;;;;;77.10;29.83;;;0.90;99.90;;;;;;4954034;28;20130;-70
2021/12/27 05:12:22;;;;;;;71.78;30.10;;;0.80;99.90;;;;;;4954239;28;20521;-67
2021/12/27 05:14:48;;;;;;;70.28;27.75;;;0.90;99.90;;;;;;4953123;28;20476;-66
2021/12/27 05:17:15;;;;;;;77.10;29.83;;;0.90;99.90;;;;;;4952003;28;20086;-68
2021/12/27 05:19:42;;;;;;;67.03;26.25;;;1.00;99.90;;;;;;4951698;28;20134;-68
2021/12/27 05:22:09;;;;;;;70.75;28.17;;;1.00;99.90;;;;;;4947773;28;20723;-69
2021/12/27 05:24:36;;;;;;;66.20;28.17;;;1.00;99.90;;;;;;4953519;28;20039;-68
2021/12/27 05:27:03;;;;;;;73.25;30.50;;;1.00;99.90;;;;;;4950898;28;20394;-67
2021/12/27 05:29:30;;;;;;;73.43;27.42;;;1.00;99.90;;;;;;4951795;28;20038;-67
2021/12/27 05:32:01;;;;;;;72.43;28.77;;;1.00;99.90;;;;;;4950951;28;20039;-67
2021/12/27 05:34:35;;;;;;;68.43;28.20;;;1.00;99.90;;;;;;4951775;28;20517;-68
2021/12/27 05:37:03;;;;;;;71.53;27.63;;;1.00;99.90;;;;;;4950423;28;20109;-68
2021/12/27 05:39:30;;;;;;;72.32;29.77;;;1.00;99.90;;;;;;4951598;28;20221;-68
2021/12/27 05:41:57;;;;;;;71.03;26.15;;;1.10;99.90;;;;;;4949723;28;20051;-68
2021/12/27 05:44:24;;;;;;;68.15;27.75;;;1.00;99.90;;;;;;4952014;28;20109;-67
2021/12/27 05:46:50;;;;;;;74.18;28.15;;;1.00;99.90;;;;;;4934050;28;20039;-68
2021/12/27 05:49:17;;;;;;;79.97;27.65;;;1.10;99.90;;;;;;4950832;28;20058;-70
2021/12/27 05:51:44;;;;;;;66.80;26.08;;;1.10;99.90;;;;;;4950010;28;20046;-70
2021/12/27 05:54:13;;;;;;;77.88;29.85;;;1.10;99.90;;;;;;4950343;28;20130;-68
2021/12/27 05:56:43;;;;;;;69.90;25.98;;;1.10;99.90;;;;;;4948900;28;20089;-68
2021/12/27 05:59:12;;;;;;;70.57;24.98;;;1.10;99.90;;;;;;4951289;28;20057;-68
2021/12/27 06:01:40;;;;;;;66.88;26.75;;;1.10;99.90;;;;;;4951125;28;20049;-69
2021/12/27 06:04:07;;;;;;;82.70;29.10;;;1.10;99.90;;;;;;4952071;28;20409;-68
2021/12/27 06:06:35;;;;;;;80.78;28.58;;;1.10;99.90;;;;;;4949487;28;20436;-69
2021/12/27 06:09:06;;;;;;;78.93;28.40;;;1.20;99.90;;;;;;4951663;28;20042;-69
2021/12/27 06:11:33;;;;;;;81.65;29.65;;;1.20;99.90;;;;;;4963047;28;20054;-69
2021/12/27 06:14:00;;;;;;;83.05;27.42;;;1.20;99.90;;;;;;4952016;28;20283;-68
2021/12/27 06:16:27;;;;;;;78.88;29.20;;;1.10;99.90;;;;;;4948488;28;20054;-68
2021/12/27 06:18:54;;;;;;;77.10;27.63;;;1.20;99.90;;;;;;4951948;28;20074;-68
2021/12/27 06:21:21;;;;;;;71.32;25.63;;;1.20;99.90;;;;;;4952215;28;20076;-68
2021/12/27 06:23:48;;;;;;;74.75;26.65;;;1.10;99.90;;;;;;4951272;28;20456;-69
2021/12/27 06:26:15;;;;;;;77.97;28.17;;;1.10;99.90;;;;;;4950295;28;20042;-68
2021/12/27 06:28:41;;;;;;;66.38;26.48;;;1.20;99.90;;;;;;4950764;28;20140;-68
2021/12/27 06:31:08;;;;;;;67.18;24.65;;;1.10;99.90;;;;;;4935362;28;20042;-68
2021/12/27 06:33:35;;;;;;;71.40;26.27;;;1.10;99.90;;;;;;4951727;28;20349;-67
2021/12/27 06:36:03;;;;;;;79.22;28.80;;;1.10;99.90;;;;;;4948828;28;20339;-68
2021/12/27 06:38:30;;;;;;;81.05;29.65;;;1.20;99.90;;;;;;4950545;28;20050;-68
2021/12/27 06:40:58;;;;;;;73.68;27.17;;;1.20;99.90;;;;;;4948220;28;20366;-69
2021/12/27 06:43:25;;;;;;;68.47;27.27;;;1.20;99.90;;;;;;4949944;28;20425;-70
2021/12/27 06:45:52;;;;;;;76.70;27.40;;;1.20;99.90;;;;;;4933403;28;20571;-69
2021/12/27 06:48:19;;;;;;;79.22;27.35;;;1.20;99.90;;;;;;4948556;28;20464;-69
2021/12/27 06:50:45;;;;;;;68.35;24.75;;;1.20;99.90;;;;;;4927951;28;20139;-67
2021/12/27 06:53:12;;;;;;;67.13;25.23;;;1.20;99.90;;;;;;4950537;28;20065;-69
2021/12/27 06:55:46;;;;;;;68.07;25.98;;;1.20;99.90;;;;;;4964942;28;20537;-69
2021/12/27 06:58:13;;;;;;;71.75;26.60;;;1.20;99.90;;;;;;4949056;28;20116;-71
2021/12/27 07:00:41;;;;;;;70.80;25.45;;;1.30;99.90;;;;;;4950514;28;20054;-70
2021/12/27 07:03:07;;;;;;;78.63;31.85;;;1.30;99.90;;;;;;4949719;28;20580;-69
2021/12/27 07:05:34;;;;;;;75.35;27.65;;;1.30;99.90;;;;;;4950287;28;20043;-69
2021/12/27 07:08:01;;;;;;;75.22;27.15;;;1.30;99.90;;;;;;4952762;28;20117;-69
2021/12/27 07:10:28;;;;;;;70.10;30.02;;;1.20;99.90;;;;;;4953383;28;20047;-71
2021/12/27 07:12:54;;;;;;;71.32;29.67;;;1.30;99.90;;;;;;4952754;28;20053;-71
2021/12/27 07:15:22;;;;;;;69.05;27.75;;;1.40;99.90;;;;;;4966429;28;20276;-69
2021/12/27 07:17:49;;;;;;;63.70;22.50;;;1.30;99.90;;;;;;4955189;28;20130;-68
2021/12/27 07:20:15;;;;;;;71.40;26.13;;;1.30;99.90;;;;;;4954215;28;20375;-69
2021/12/27 07:22:42;;;;;;;62.50;23.40;;;1.30;99.90;;;;;;4954337;28;20407;-69
2021/12/27 07:25:09;;;;;;;68.43;25.10;;;1.40;99.90;;;;;;4953661;28;20121;-69
2021/12/27 07:27:36;;;;;;;58.28;23.63;;;1.40;99.90;;;;;;4951935;28;20449;-69
2021/12/27 07:30:06;;;;;;;57.67;23.63;;;1.40;99.90;;;;;;4950391;28;20050;-69
2021/12/27 07:32:33;;;;;;;69.05;24.17;;;1.40;99.90;;;;;;4952977;28;20061;-69
2021/12/27 07:35:00;;;;;;;58.17;23.10;;;1.50;99.90;;;;;;4969034;28;20085;-69
2021/12/27 07:37:27;;;;;;;55.03;23.13;;;1.50;99.90;;;;;;4953414;28;20050;-70
2021/12/27 07:39:54;;;;;;;62.75;25.08;;;1.50;99.90;;;;;;4955307;28;20421;-71
2021/12/27 07:42:21;;;;;;;62.72;24.42;;;1.50;99.90;;;;;;4951860;28;20488;-70
2021/12/27 07:44:48;;;;;;;56.10;22.45;;;1.50;99.90;;;;;;4951756;28;20097;-71
2021/12/27 07:47:14;;;;;;;48.60;19.92;;;1.50;99.90;;;;;;4949699;28;20344;-71
2021/12/27 07:49:41;;;;;;;56.53;20.30;;;1.50;99.90;;;;;;4953357;28;20077;-70
2021/12/27 07:52:08;;;;;;;51.85;20.75;;;1.50;99.90;;;;;;4954133;28;20335;-71
2021/12/27 07:54:36;;;;;;;49.30;19.63;;;1.60;99.90;;;;;;4954525;28;20062;-72
2021/12/27 07:57:03;;;;;;;54.47;23.17;;;1.70;99.90;;;;;;4951772;28;20141;-71
2021/12/27 07:59:30;;;;;;;45.85;19.45;;;1.70;99.90;;;;;;4955027;28;20184;-69
2021/12/27 08:01:57;;;;;;;55.35;22.25;;;1.70;99.90;;;;;;4952774;28;20046;-71
2021/12/27 08:04:24;;;;;;;42.63;19.25;;;1.80;99.90;;;;;;4968970;28;20137;-70
2021/12/27 08:06:51;;;;;;;48.20;18.33;;;1.80;99.90;;;;;;4953562;28;20317;-69
2021/12/27 08:09:18;;;;;;;44.35;19.05;;;1.80;99.90;;;;;;4936282;28;20517;-69
2021/12/27 08:11:46;;;;;;;43.70;18.63;;;1.70;99.90;;;;;;4948752;28;20109;-69
2021/12/27 08:14:13;;;;;;;43.70;18.27;;;1.80;99.90;;;;;;4954795;28;20055;-68
2021/12/27 08:16:39;;;;;;;42.38;17.77;;;1.90;99.90;;;;;;4934000;28;20535;-69
2021/12/27 08:19:06;;;;;;;40.15;17.50;;;1.90;99.90;;;;;;4971352;28;20046;-68
2021/12/27 08:21:33;;;;;;;37.28;17.45;;;1.90;99.90;;;;;;4963769;28;20165;-71
2021/12/27 08:24:00;;;;;;;34.83;17.70;;;1.80;99.90;;;;;;4953939;28;20503;-70
2021/12/27 08:26:27;;;;;;;38.03;17.58;;;1.90;99.90;;;;;;4950523;28;20356;-67
2021/12/27 08:28:54;;;;;;;31.83;16.20;;;1.90;99.90;;;;;;4952766;28;20043;-69
2021/12/27 08:31:21;;;;;;;42.03;17.92;;;2.00;99.90;;;;;;4954552;28;20050;-68
2021/12/27 08:33:48;;;;;;;35.67;18.08;;;2.00;99.90;;;;;;4954160;28;20210;-68
2021/12/27 08:36:15;;;;;;;39.05;18.10;;;2.00;99.90;;;;;;4951871;28;20512;-67
2021/12/27 08:38:45;;;;;;;32.03;16.90;;;2.00;99.90;;;;;;4951671;28;20533;-67
2021/12/27 08:41:12;;;;;;;35.78;17.50;;;2.00;99.90;;;;;;4951590;28;20051;-68
2021/12/27 08:43:39;;;;;;;37.35;19.13;;;2.00;99.90;;;;;;4952338;28;20831;-68
2021/12/27 08:46:07;;;;;;;37.72;18.33;;;2.00;99.90;;;;;;4948532;28;20047;-70
2021/12/27 08:48:34;;;;;;;42.88;18.95;;;2.10;99.90;;;;;;4957046;28;20045;-70
2021/12/27 08:51:02;;;;;;;35.10;16.75;;;2.00;99.90;;;;;;4953397;28;20130;-70
2021/12/27 08:53:29;;;;;;;29.92;15.05;;;2.10;99.90;;;;;;4950931;28;20062;-70
2021/12/27 08:55:55;;;;;;;35.28;16.83;;;2.10;99.90;;;;;;4948379;28;20054;-71
2021/12/27 08:58:22;;;;;;;40.10;17.50;;;2.10;99.90;;;;;;4950556;28;20595;-71
2021/12/27 09:00:49;;;;;;;31.58;16.73;;;2.10;99.90;;;;;;4949308;28;20629;-71
2021/12/27 09:03:17;;;;;;;35.75;17.33;;;2.10;99.90;;;;;;4949497;28;20209;-71
2021/12/27 09:05:47;;;;;;;36.53;17.00;;;2.10;99.90;;;;;;4949042;28;20058;-69
2021/12/27 09:08:14;;;;;;;37.92;18.27;;;2.10;99.90;;;;;;4951888;28;20043;-68
2021/12/27 09:10:41;;;;;;;37.97;17.88;;;2.10;99.90;;;;;;4953720;28;20599;-69
2021/12/27 09:13:08;;;;;;;35.60;18.85;;;2.10;99.90;;;;;;4952142;28;20046;-71
2021/12/27 09:15:35;;;;;;;41.72;20.02;;;2.10;99.90;;;;;;4952887;28;20042;-68
2021/12/27 09:18:02;;;;;;;37.75;17.52;;;2.10;99.90;;;;;;4953167;28;20055;-69
2021/12/27 09:20:29;;;;;;;33.80;17.35;;;2.10;99.90;;;;;;4951387;28;20058;-70
2021/12/27 09:22:56;;;;;;;34.97;17.85;;;2.10;99.90;;;;;;4953212;28;20070;-71
2021/12/27 09:25:23;;;;;;;35.70;19.10;;;2.20;99.90;;;;;;4950654;28;20596;-71
2021/12/27 09:27:50;;;;;;;34.70;19.02;;;2.10;99.90;;;;;;4952050;28;20238;-71
2021/12/27 09:30:17;;;;;;;40.95;22.70;;;2.10;99.90;;;;;;4950092;28;20105;-71
2021/12/27 09:32:45;;;;;;;36.63;19.13;;;2.20;99.90;;;;;;4967526;28;20074;-71
2021/12/27 09:35:12;;;;;;;35.47;18.50;;;2.20;99.90;;;;;;4953112;28;20054;-71
2021/12/27 09:37:39;;;;;;;38.38;18.75;;;2.30;99.90;;;;;;4953129;28;20524;-70
2021/12/27 09:40:06;;;;;;;40.10;20.48;;;2.30;99.90;;;;;;4950126;28;20059;-70
2021/12/27 09:42:35;;;;;;;47.50;23.60;;;2.20;99.90;;;;;;4952142;28;20058;-71
2021/12/27 09:45:04;;;;;;;34.78;18.30;;;2.40;99.90;;;;;;4935237;28;20484;-69
2021/12/27 09:47:32;;;;;;;32.13;15.93;;;2.40;99.90;;;;;;4948972;28;20371;-70
2021/12/27 09:50:48;;;;;;;28.48;15.60;;;2.30;99.90;;;;;;4950931;28;20047;-68
2021/12/27 09:53:15;;;;;;;29.20;16.02;;;2.40;99.90;;;;;;4927625;28;20049;-68
2021/12/27 09:55:57;;;;;;;28.58;14.27;;;2.40;99.90;;;;;;4950440;28;20047;-68
2021/12/27 09:58:24;;;;;;;27.92;15.75;;;2.50;99.90;;;;;;4950189;28;20406;-68
2021/12/27 10:00:51;;;;;;;32.22;14.45;;;2.40;99.90;;;;;;4951192;28;20058;-69
2021/12/27 10:03:18;;;;;;;28.30;15.38;;;2.40;99.90;;;;;;4951682;28;20332;-68
2021/12/27 10:05:45;;;;;;;31.10;13.98;;;2.50;99.90;;;;;;4945960;28;20576;-69
2021/12/27 10:08:12;;;;;;;23.67;11.77;;;2.50;99.90;;;;;;4968443;28;20058;-68
2021/12/27 10:10:38;;;;;;;30.30;15.07;;;2.50;99.90;;;;;;4949085;28;20106;-68
2021/12/27 10:13:09;;;;;;;28.77;13.18;;;2.60;99.90;;;;;;4943473;28;20179;-69
2021/12/27 10:15:39;;;;;;;24.83;13.48;;;2.60;99.90;;;;;;4945222;28;20051;-69
2021/12/27 10:18:12;;;;;;;25.60;14.05;;;2.50;99.90;;;;;;4957124;28;20050;-69
2021/12/27 10:20:40;;;;;;;19.27;11.25;;;2.60;99.90;;;;;;4943690;28;20510;-68
2021/12/27 10:23:09;;;;;;;29.73;15.50;;;2.60;99.90;;;;;;4948699;28;20069;-68
2021/12/27 10:25:36;;;;;;;29.95;16.40;;;2.70;99.90;;;;;;4953233;28;20051;-68
2021/12/27 10:28:04;;;;;;;33.13;18.20;;;2.70;99.90;;;;;;4944011;28;20296;-68
2021/12/27 10:30:37;;;;;;;34.90;18.88;;;2.70;99.90;;;;;;4950744;28;20402;-68
2021/12/27 10:33:23;;;;;;;28.70;14.93;;;2.70;99.90;;;;;;4967935;28;20090;-67
2021/12/27 10:35:56;;;;;;;26.42;13.15;;;2.80;99.90;;;;;;4967530;28;20168;-67
2021/12/27 10:38:32;;;;;;;33.88;15.00;;;2.70;99.90;;;;;;4950098;28;20307;-68
2021/12/27 10:41:00;;;;;;;30.52;14.38;;;2.70;99.90;;;;;;4950724;28;20372;-68
2021/12/27 10:43:45;;;;;;;34.65;14.20;;;2.70;99.90;;;;;;4972993;28;20532;-69
2021/12/27 10:46:33;;;;;;;26.55;13.82;;;2.80;99.90;;;;;;4955205;28;20096;-69
2021/12/27 10:49:00;;;;;;;28.65;13.02;;;2.80;99.90;;;;;;4956307;28;20216;-68
2021/12/27 10:51:28;;;;;;;32.30;15.23;;;2.90;99.90;;;;;;4954078;28;20043;-68
2021/12/27 10:53:58;;;;;;;28.85;14.07;;;2.80;99.90;;;;;;4954496;28;20053;-69
2021/12/27 10:56:27;;;;;;;32.08;19.08;;;2.90;99.90;;;;;;4956004;28;20297;-68
2021/12/27 10:58:55;;;;;;;27.48;15.88;;;3.00;99.90;;;;;;4954683;28;20270;-68
2021/12/27 11:01:26;;;;;;;28.23;15.10;;;3.00;99.90;;;;;;4954926;28;20106;-67
2021/12/27 11:03:58;;;;;;;22.17;11.80;;;3.00;99.90;;;;;;4956734;28;20580;-68
2021/12/27 11:06:30;;;;;;;25.85;11.75;;;3.00;99.90;;;;;;4954245;28;20129;-69
2021/12/27 11:08:58;;;;;;;30.40;13.52;;;3.00;99.90;;;;;;4955800;28;20622;-69
2021/12/27 11:11:26;;;;;;;31.58;14.70;;;3.00;99.90;;;;;;4954074;28;20047;-69
2021/12/27 11:13:56;;;;;;;27.27;13.73;;;2.90;99.90;;;;;;4955121;28;20565;-69
2021/12/27 11:16:26;;;;;;;28.02;11.95;;;3.00;99.90;;;;;;4952281;28;20047;-70
2021/12/27 11:18:54;;;;;;;28.15;14.27;;;3.10;99.90;;;;;;4954683;28;20110;-72
2021/12/27 11:21:37;;;;;;;28.15;12.70;;;3.10;99.90;;;;;;4955625;28;20109;-73
2021/12/27 11:24:04;;;;;;;26.35;14.10;;;3.20;99.90;;;;;;4957166;28;20344;-74
2021/12/27 11:26:35;;;;;;;28.17;15.60;;;3.30;99.90;;;;;;4954976;28;20151;-73
2021/12/27 11:29:22;;;;;;;29.33;14.65;;;3.40;99.90;;;;;;4954860;28;20437;-73
2021/12/27 11:31:51;;;;;;;20.60;10.90;;;3.50;99.90;;;;;;4954095;28;20059;-75
2021/12/27 11:34:19;;;;;;;20.95;11.25;;;3.70;99.90;;;;;;4957539;28;20051;-74
2021/12/27 11:36:53;;;;;;;19.00;10.68;;;3.90;99.90;;;;;;4952511;28;20050;-73
2021/12/27 11:39:35;;;;;;;21.27;12.20;;;4.00;99.90;;;;;;4955088;28;20499;-73
2021/12/27 11:42:04;;;;;;;20.65;11.68;;;4.00;99.90;;;;;;4956367;28;20051;-71
2021/12/27 11:44:44;;;;;;;26.73;13.75;;;3.90;99.90;;;;;;4940624;28;20441;-72
2021/12/27 11:47:21;;;;;;;27.38;13.15;;;3.80;99.90;;;;;;4951921;28;20124;-71
2021/12/27 11:49:51;;;;;;;33.33;17.80;;;3.70;99.90;;;;;;4954701;28;20042;-72
2021/12/27 11:52:27;;;;;;;27.17;13.75;;;3.70;99.90;;;;;;4953428;28;20039;-72
2021/12/27 11:54:58;;;;;;;26.08;13.18;;;3.60;99.90;;;;;;4951817;28;20385;-71
2021/12/27 11:57:37;;;;;;;20.42;10.18;;;3.60;99.90;;;;;;4971893;23;20074;-74
2021/12/27 12:00:16;;;;;;;23.80;12.25;;;3.50;99.90;;;;;;4962719;28;20443;-76
2021/12/27 12:02:48;;;;;;;18.80;10.48;;;3.60;99.90;;;;;;4961832;28;20049;-76
2021/12/27 12:05:49;;;;;;;19.63;11.98;;;3.60;99.90;;;;;;4962459;28;20057;-76
2021/12/27 12:08:38;;;;;;;14.45;8.65;;;3.70;99.90;;;;;;4965250;28;20333;-75
2021/12/27 12:11:10;;;;;;;15.48;10.55;;;3.90;99.90;;;;;;4962976;28;20133;-76
2021/12/27 12:13:37;;;;;;;13.88;8.30;;;4.00;99.90;;;;;;4962889;28;20078;-76
2021/12/27 12:16:13;;;;;;;13.73;7.88;;;4.20;99.90;;;;;;4964573;28;20098;-76
2021/12/27 12:19:09;;;;;;;12.60;8.13;;;4.20;99.90;;;;;;4960680;28;20561;-76
2021/12/27 12:21:37;;;;;;;;;;;4.30;99.90;;;;;;4948532;28;20051;-76
2021/12/27 12:24:18;;;;;;;15.50;8.27;;;4.20;99.90;;;;;;4962315;28;20553;-76
2021/12/27 12:27:02;;;;;;;14.23;8.75;;;4.20;99.90;;;;;;4962499;28;20047;-76
2021/12/27 12:29:43;;;;;;;15.10;9.35;;;4.20;99.90;;;;;;4951448;28;20050;-75
2021/12/27 12:32:13;;;;;;;20.08;9.48;;;4.20;99.90;;;;;;4963303;28;20318;-77
2021/12/27 12:34:40;;;;;;;13.18;7.85;;;4.10;99.90;;;;;;4964551;28;20479;-76
2021/12/27 12:37:13;;;;;;;15.50;9.27;;;4.10;99.90;;;;;;4963413;28;20116;-75
2021/12/27 12:39:47;;;;;;;20.73;10.65;;;4.00;99.90;;;;;;4963796;28;20692;-76
2021/12/27 12:42:19;;;;;;;17.95;10.70;;;4.10;99.90;;;;;;4962295;28;20054;-77
2021/12/27 12:44:45;;;;;;;20.70;9.70;;;4.10;99.90;;;;;;4965143;28;20073;-76
2021/12/27 12:47:13;;;;;;;18.83;10.15;;;4.10;99.90;;;;;;4949680;28;20426;-76
2021/12/27 12:49:39;;;;;;;17.20;9.48;;;4.10;99.90;;;;;;4960886;28;20150;-75
2021/12/27 12:52:07;;;;;;;22.20;10.57;;;4.00;99.90;;;;;;4963751;28;20113;-76
2021/12/27 12:54:39;;;;;;;16.85;9.18;;;4.00;99.90;;;;;;4963149;28;20423;-76